createdAt,value
2019-04-30T00:00:30.462Z,6.40
2019-04-30T00:03:06.655Z,6.40
2019-04-30T00:05:35.635Z,6.40
2019-04-30T00:08:05.876Z,6.40
2019-04-30T00:10:41.339Z,6.40
2019-04-30T00:13:10.416Z,6.40
2019-04-30T00:15:38.676Z,6.40
2019-04-30T00:18:08.002Z,6.40
2019-04-30T00:20:38.707Z,6.40
2019-04-30T00:23:08.098Z,6.30
2019-04-30T00:25:37.883Z,6.30
2019-04-30T00:28:08.795Z,6.30
2019-04-30T00:30:39.378Z,6.30
2019-04-30T00:33:09.186Z,6.30
2019-04-30T00:35:38.497Z,6.30
2019-04-30T00:38:07.799Z,6.30
2019-04-30T00:40:37.192Z,6.30
2019-04-30T00:43:08.993Z,6.30
2019-04-30T00:45:39.887Z,6.30
2019-04-30T00:48:08.575Z,6.20
2019-04-30T00:50:37.923Z,6.20
2019-04-30T00:53:12.529Z,6.20
2019-04-30T00:55:44.423Z,6.20
2019-04-30T00:58:09.145Z,6.20
2019-04-30T01:00:47.911Z,6.20
2019-04-30T01:03:21.806Z,6.10
2019-04-30T01:05:51.182Z,6.10
2019-04-30T01:08:21.068Z,6.10
2019-04-30T01:10:51.627Z,6.10
2019-04-30T01:13:20.957Z,6.10
2019-04-30T01:15:52.463Z,6.10
2019-04-30T01:18:23.622Z,6.10
2019-04-30T01:20:52.357Z,6.10
2019-04-30T01:23:22.375Z,6.10
2019-04-30T01:25:52.081Z,6.00
2019-04-30T01:28:24.211Z,6.00
2019-04-30T01:30:53.834Z,6.00
2019-04-30T01:33:23.405Z,6.00
2019-04-30T01:35:52.781Z,5.90
2019-04-30T01:38:22.189Z,5.90
2019-04-30T01:40:51.500Z,5.90
2019-04-30T01:43:30.471Z,5.80
2019-04-30T01:45:51.975Z,5.80
2019-04-30T01:48:21.251Z,5.80
2019-04-30T01:50:50.637Z,5.80
2019-04-30T01:53:20.023Z,5.80
2019-04-30T01:56:03.840Z,5.80
2019-04-30T01:58:52.095Z,5.70
2019-04-30T02:01:42.361Z,5.70
2019-04-30T02:04:11.681Z,5.60
2019-04-30T02:06:41.193Z,5.60
2019-04-30T02:09:10.493Z,5.60
2019-04-30T02:11:39.910Z,5.60
2019-04-30T02:14:09.379Z,5.60
2019-04-30T02:16:39.582Z,5.50
2019-04-30T02:19:09.224Z,5.50
2019-04-30T02:21:38.637Z,5.50
2019-04-30T02:24:08.928Z,5.50
2019-04-30T02:26:39.058Z,5.50
2019-04-30T02:29:09.162Z,5.50
2019-04-30T02:31:40.792Z,5.50
2019-04-30T02:34:21.952Z,5.50
2019-04-30T02:36:56.375Z,5.50
2019-04-30T02:39:25.760Z,5.50
2019-04-30T02:41:55.735Z,5.40
2019-04-30T02:44:25.842Z,5.30
2019-04-30T02:47:00.296Z,5.30
2019-04-30T02:49:30.573Z,5.30
2019-04-30T02:52:02.502Z,5.30
2019-04-30T02:54:33.194Z,5.20
2019-04-30T02:57:15.175Z,5.20
2019-04-30T03:00:02.391Z,5.20
2019-04-30T03:02:32.682Z,5.10
2019-04-30T03:05:02.196Z,5.10
2019-04-30T03:07:31.588Z,5.10
2019-04-30T03:10:00.949Z,5.00
2019-04-30T03:12:33.605Z,5.00
2019-04-30T03:15:01.362Z,5.00
2019-04-30T03:17:50.573Z,5.00
2019-04-30T03:20:42.009Z,4.90
2019-04-30T03:23:11.450Z,4.80
2019-04-30T03:25:40.843Z,4.80
2019-04-30T03:28:10.218Z,4.80
2019-04-30T03:30:42.048Z,4.80
2019-04-30T03:33:12.640Z,4.70
2019-04-30T03:35:47.731Z,4.70
2019-04-30T03:38:12.675Z,4.70
2019-04-30T03:40:42.034Z,4.70
2019-04-30T03:43:11.412Z,4.60
2019-04-30T03:45:40.801Z,4.60
2019-04-30T03:48:10.433Z,4.60
2019-04-30T03:50:50.233Z,4.50
2019-04-30T03:53:11.966Z,4.50
2019-04-30T03:55:41.422Z,4.50
2019-04-30T03:58:10.734Z,4.50
2019-04-30T04:00:51.228Z,4.50
2019-04-30T04:03:20.673Z,4.50
2019-04-30T04:06:09.400Z,4.40
2019-04-30T04:08:49.020Z,4.40
2019-04-30T04:11:26.418Z,4.40
2019-04-30T04:13:55.740Z,4.40
2019-04-30T04:16:25.140Z,4.50
2019-04-30T04:18:54.440Z,4.50
2019-04-30T04:21:23.904Z,4.50
2019-04-30T04:23:53.209Z,4.50
2019-04-30T04:26:22.576Z,4.60
2019-04-30T04:28:51.994Z,4.70
2019-04-30T04:31:21.378Z,4.80
2019-04-30T04:33:52.664Z,4.90
2019-04-30T04:36:21.666Z,5.00
2019-04-30T04:38:51.031Z,5.10
2019-04-30T04:41:20.340Z,5.20
2019-04-30T04:43:50.565Z,5.30
2019-04-30T04:46:20.515Z,5.40
2019-04-30T04:48:50.101Z,5.50
2019-04-30T04:51:33.256Z,5.70
2019-04-30T04:53:50.592Z,5.90
2019-04-30T04:56:19.983Z,6.20
2019-04-30T04:58:50.206Z,6.50
2019-04-30T05:01:22.750Z,6.90
2019-04-30T05:03:52.235Z,7.20
2019-04-30T05:06:22.296Z,7.40
2019-04-30T05:08:51.919Z,7.70
2019-04-30T05:11:21.355Z,8.00
2019-04-30T05:13:50.793Z,8.20
2019-04-30T05:16:20.225Z,8.40
2019-04-30T05:18:51.841Z,8.70
2019-04-30T05:21:21.145Z,8.90
2019-04-30T05:23:50.569Z,9.20
2019-04-30T05:26:19.932Z,9.40
2019-04-30T05:28:52.754Z,9.70
2019-04-30T05:31:21.064Z,10.00
2019-04-30T05:33:50.608Z,10.20
2019-04-30T05:36:20.198Z,10.50
2019-04-30T05:38:49.614Z,10.70
2019-04-30T05:41:19.295Z,11.00
2019-04-30T05:43:49.000Z,11.30
2019-04-30T05:46:19.628Z,11.50
2019-04-30T05:48:49.602Z,11.80
2019-04-30T05:51:21.168Z,12.00
2019-04-30T05:53:50.108Z,12.30
2019-04-30T05:56:19.474Z,12.50
2019-04-30T05:58:49.517Z,12.80
2019-04-30T06:01:19.639Z,13.00
2019-04-30T06:03:49.419Z,13.30
2019-04-30T06:06:19.438Z,13.70
2019-04-30T06:09:06.502Z,14.00
2019-04-30T06:11:49.181Z,14.30
2019-04-30T06:14:46.625Z,14.60
2019-04-30T06:17:17.104Z,15.10
2019-04-30T06:19:46.474Z,15.50
2019-04-30T06:22:15.868Z,16.00
2019-04-30T06:24:45.166Z,16.40
2019-04-30T06:27:14.672Z,16.70
2019-04-30T06:29:44.230Z,17.00
2019-04-30T06:32:13.650Z,17.50
2019-04-30T06:34:44.078Z,17.90
2019-04-30T06:37:13.512Z,18.20
2019-04-30T06:39:42.975Z,18.50
2019-04-30T06:42:13.097Z,18.90
2019-04-30T06:44:44.336Z,19.20
2019-04-30T06:47:14.453Z,19.60
2019-04-30T06:49:44.115Z,19.90
2019-04-30T06:52:20.613Z,20.30
2019-04-30T06:54:44.568Z,20.70
2019-04-30T06:57:13.938Z,21.10
2019-04-30T06:59:43.275Z,21.60
2019-04-30T07:02:12.655Z,22.20
2019-04-30T07:04:42.010Z,22.70
2019-04-30T07:07:14.347Z,23.20
2019-04-30T07:10:20.527Z,23.60
2019-04-30T07:12:54.289Z,24.20
2019-04-30T07:15:23.687Z,24.90
2019-04-30T07:17:53.054Z,25.40
2019-04-30T07:20:22.457Z,25.90
2019-04-30T07:25:22.906Z,26.90
2019-04-30T07:27:52.233Z,27.40
2019-04-30T07:30:21.609Z,27.80
2019-04-30T07:32:50.929Z,28.40
2019-04-30T07:35:20.224Z,28.80
2019-04-30T07:37:49.935Z,29.00
2019-04-30T07:40:19.435Z,29.30
2019-04-30T07:42:49.378Z,29.70
2019-04-30T07:45:19.454Z,30.20
2019-04-30T07:47:49.577Z,30.60
2019-04-30T07:50:21.557Z,31.10
2019-04-30T07:53:01.787Z,31.20
2019-04-30T07:55:21.037Z,31.50
2019-04-30T07:57:50.810Z,31.80
2019-04-30T08:00:20.358Z,32.00
2019-04-30T08:02:59.850Z,32.10
2019-04-30T08:05:33.742Z,32.50
2019-04-30T08:08:17.704Z,32.70
2019-04-30T08:09:38.381Z,26.40
2019-04-30T08:10:34.210Z,32.80
2019-04-30T08:13:10.310Z,33.20
2019-04-30T08:15:34.472Z,33.50
2019-04-30T08:18:05.901Z,34.00
2019-04-30T08:20:34.891Z,34.20
2019-04-30T08:23:14.066Z,34.60
2019-04-30T08:25:35.251Z,34.90
2019-04-30T08:28:04.543Z,35.20
2019-04-30T08:30:33.938Z,35.50
2019-04-30T08:33:03.310Z,35.80
2019-04-30T08:35:32.662Z,35.90
2019-04-30T08:38:02.974Z,36.10
2019-04-30T08:40:32.285Z,36.30
2019-04-30T08:43:01.678Z,36.60
2019-04-30T08:45:34.421Z,37.00
2019-04-30T08:48:02.033Z,37.10
2019-04-30T08:50:31.436Z,36.90
2019-04-30T08:53:01.096Z,37.20
2019-04-30T08:55:30.661Z,37.40
2019-04-30T08:58:09.641Z,37.70
2019-04-30T09:00:31.215Z,37.70
2019-04-30T09:03:00.557Z,38.20
2019-04-30T09:05:49.921Z,38.40
2019-04-30T09:08:19.535Z,38.60
2019-04-30T09:10:49.116Z,38.80
2019-04-30T09:13:19.164Z,38.90
2019-04-30T09:15:49.251Z,39.20
2019-04-30T09:18:19.147Z,39.50
2019-04-30T09:20:49.510Z,39.90
2019-04-30T09:23:19.622Z,40.10
2019-04-30T09:25:49.720Z,40.20
2019-04-30T09:28:19.927Z,40.60
2019-04-30T09:30:50.115Z,41.00
2019-04-30T09:33:19.573Z,41.20
2019-04-30T09:35:49.651Z,41.40
2019-04-30T09:38:19.676Z,41.40
2019-04-30T09:40:50.759Z,41.60
2019-04-30T09:43:22.956Z,41.80
2019-04-30T09:45:52.372Z,41.60
2019-04-30T09:48:22.587Z,41.80
2019-04-30T09:51:00.266Z,41.90
2019-04-30T09:53:42.027Z,42.10
2019-04-30T09:56:19.359Z,42.10
2019-04-30T09:58:56.574Z,42.20
2019-04-30T10:01:34.698Z,42.10
2019-04-30T10:04:10.226Z,41.80
2019-04-30T10:06:52.334Z,41.20
2019-04-30T10:09:29.332Z,40.70
2019-04-30T10:12:16.339Z,40.50
2019-04-30T10:14:49.736Z,40.30
2019-04-30T10:17:38.701Z,40.00
2019-04-30T10:20:28.031Z,40.00
2019-04-30T10:22:59.549Z,40.20
2019-04-30T10:25:28.301Z,40.00
2019-04-30T10:27:59.635Z,40.00
2019-04-30T10:30:34.903Z,40.20
2019-04-30T10:33:04.350Z,40.30
2019-04-30T10:35:34.034Z,40.30
2019-04-30T10:38:03.534Z,40.50
2019-04-30T10:40:32.791Z,40.60
2019-04-30T10:43:02.074Z,40.70
2019-04-30T10:45:31.646Z,40.90
2019-04-30T10:48:00.999Z,40.80
2019-04-30T10:50:30.600Z,40.80
2019-04-30T10:52:59.920Z,40.90
2019-04-30T10:55:31.140Z,41.20
2019-04-30T10:58:00.212Z,41.10
2019-04-30T11:00:40.179Z,41.00
2019-04-30T11:03:19.577Z,41.10
2019-04-30T11:05:41.386Z,41.20
2019-04-30T11:08:10.793Z,40.90
2019-04-30T11:10:40.189Z,40.90
2019-04-30T11:13:09.514Z,41.20
2019-04-30T11:15:39.470Z,41.20
2019-04-30T11:18:09.038Z,41.00
2019-04-30T11:20:39.744Z,41.10
2019-04-30T11:23:14.600Z,41.10
2019-04-30T11:25:41.552Z,41.10
2019-04-30T11:28:11.896Z,41.00
2019-04-30T11:30:41.684Z,41.10
2019-04-30T11:33:11.202Z,40.90
2019-04-30T11:35:40.619Z,40.70
2019-04-30T11:38:10.008Z,40.60
2019-04-30T11:40:40.028Z,40.50
2019-04-30T11:43:09.521Z,40.50
2019-04-30T11:46:08.686Z,40.60
2019-04-30T11:48:38.742Z,40.70
2019-04-30T11:51:09.461Z,40.70
2019-04-30T11:53:39.031Z,40.80
2019-04-30T11:56:08.391Z,40.90
2019-04-30T11:58:38.935Z,40.60
2019-04-30T12:01:12.640Z,39.90
2019-04-30T12:03:41.969Z,38.90
2019-04-30T12:06:11.303Z,38.10
2019-04-30T12:08:59.823Z,37.50
2019-04-30T12:11:34.051Z,36.90
2019-04-30T12:14:03.423Z,36.20
2019-04-30T12:16:33.767Z,35.60
2019-04-30T12:19:03.203Z,35.00
2019-04-30T12:21:32.808Z,34.60
2019-04-30T12:24:02.171Z,34.20
2019-04-30T12:26:31.424Z,34.00
2019-04-30T12:29:00.752Z,33.70
2019-04-30T12:31:30.069Z,33.60
2019-04-30T12:33:59.357Z,33.40
2019-04-30T12:36:28.980Z,33.30
2019-04-30T12:38:58.460Z,33.10
2019-04-30T12:41:27.850Z,32.90
2019-04-30T12:43:57.199Z,32.60
2019-04-30T12:46:28.777Z,32.30
2019-04-30T12:49:15.580Z,31.70
2019-04-30T12:52:01.696Z,31.40
2019-04-30T12:54:36.431Z,31.20
2019-04-30T12:57:24.784Z,31.20
2019-04-30T12:59:54.102Z,31.30
2019-04-30T13:02:23.602Z,31.50
2019-04-30T13:04:52.986Z,31.70
2019-04-30T13:07:23.004Z,31.80
2019-04-30T13:09:53.249Z,32.00
2019-04-30T13:12:23.376Z,32.30
2019-04-30T13:14:54.800Z,32.40
2019-04-30T13:17:24.502Z,32.70
2019-04-30T13:19:53.880Z,32.80
2019-04-30T13:22:24.327Z,32.90
2019-04-30T13:24:53.776Z,32.80
2019-04-30T13:27:23.219Z,32.80
2019-04-30T13:30:08.278Z,33.00
2019-04-30T13:32:44.232Z,32.90
2019-04-30T13:35:13.564Z,32.20
2019-04-30T13:37:49.930Z,31.10
2019-04-30T13:40:48.949Z,30.50
2019-04-30T13:43:20.374Z,30.50
2019-04-30T13:45:51.820Z,31.00
2019-04-30T13:48:21.032Z,31.50
2019-04-30T13:50:50.426Z,31.90
2019-04-30T13:53:19.776Z,31.90
2019-04-30T13:55:49.105Z,31.80
2019-04-30T13:58:18.432Z,31.80
2019-04-30T14:00:49.417Z,31.50
2019-04-30T14:03:25.955Z,31.50
2019-04-30T14:05:55.319Z,31.20
2019-04-30T14:08:32.679Z,30.70
2019-04-30T14:11:02.033Z,30.60
2019-04-30T14:13:31.363Z,30.30
2019-04-30T14:16:00.798Z,30.60
2019-04-30T14:18:33.838Z,30.80
2019-04-30T14:21:01.404Z,30.80
2019-04-30T14:23:31.631Z,30.90
2019-04-30T14:26:01.279Z,31.00
2019-04-30T14:28:30.737Z,31.10
2019-04-30T14:31:00.138Z,31.30
2019-04-30T14:33:29.574Z,31.40
2019-04-30T14:36:00.747Z,31.60
2019-04-30T14:38:30.345Z,31.60
2019-04-30T14:41:01.471Z,31.70
2019-04-30T14:43:51.139Z,31.70
2019-04-30T14:46:40.045Z,31.60
2019-04-30T14:49:28.435Z,31.60
2019-04-30T14:51:59.593Z,31.80
2019-04-30T14:54:39.014Z,31.80
2019-04-30T14:57:16.497Z,31.60
2019-04-30T15:00:08.787Z,31.60
2019-04-30T15:02:42.124Z,31.60
2019-04-30T15:05:11.727Z,31.30
2019-04-30T15:07:41.055Z,31.10
2019-04-30T15:10:10.539Z,30.80
2019-04-30T15:12:39.981Z,30.70
2019-04-30T15:15:09.390Z,30.60
2019-04-30T15:17:39.238Z,30.50
2019-04-30T15:20:10.208Z,30.00
2019-04-30T15:22:42.110Z,30.10
2019-04-30T15:25:11.672Z,30.10
2019-04-30T15:27:45.267Z,29.80
2019-04-30T15:30:21.722Z,29.50
2019-04-30T15:32:54.261Z,29.30
2019-04-30T15:35:31.773Z,28.90
2019-04-30T15:38:05.101Z,28.10
2019-04-30T15:40:59.778Z,27.50
2019-04-30T15:43:44.644Z,27.10
2019-04-30T15:46:14.641Z,26.70
2019-04-30T15:48:44.007Z,26.40
2019-04-30T15:51:15.435Z,25.90
2019-04-30T15:53:44.385Z,25.40
2019-04-30T15:56:13.605Z,25.00
2019-04-30T15:58:44.594Z,24.60
2019-04-30T16:01:14.270Z,24.20
2019-04-30T16:03:45.187Z,23.80
2019-04-30T16:06:14.563Z,23.40
2019-04-30T16:08:53.416Z,23.10
2019-04-30T16:11:35.024Z,22.90
2019-04-30T16:14:12.824Z,22.60
2019-04-30T16:16:45.068Z,22.40
2019-04-30T16:19:14.577Z,22.30
2019-04-30T16:21:43.933Z,22.10
2019-04-30T16:24:13.508Z,21.90
2019-04-30T16:26:49.623Z,21.80
2019-04-30T16:29:13.859Z,21.70
2019-04-30T16:31:43.403Z,21.60
2019-04-30T16:34:12.735Z,21.40
2019-04-30T16:36:42.119Z,21.30
2019-04-30T16:39:11.371Z,21.20
2019-04-30T16:41:40.979Z,21.20
2019-04-30T16:44:10.231Z,21.10
2019-04-30T16:46:39.594Z,21.00
2019-04-30T16:49:10.521Z,20.90
2019-04-30T16:51:39.857Z,20.80
2019-04-30T16:54:09.185Z,20.60
2019-04-30T16:56:38.796Z,20.50
2019-04-30T16:59:10.130Z,20.40
2019-04-30T17:01:39.477Z,20.30
2019-04-30T17:04:16.712Z,20.20
2019-04-30T17:06:50.486Z,20.10
2019-04-30T17:09:36.259Z,20.00
2019-04-30T17:12:20.515Z,19.90
2019-04-30T17:15:09.368Z,19.80
2019-04-30T17:17:39.601Z,19.70
2019-04-30T17:20:09.274Z,19.60
2019-04-30T17:22:39.494Z,19.50
2019-04-30T17:25:08.923Z,19.40
2019-04-30T17:27:39.243Z,19.40
2019-04-30T17:30:11.093Z,19.40
2019-04-30T17:32:40.630Z,19.30
2019-04-30T17:35:11.361Z,19.30
2019-04-30T17:37:40.859Z,19.20
2019-04-30T17:40:10.790Z,19.10
2019-04-30T17:42:40.156Z,19.10
2019-04-30T17:45:10.859Z,19.10
2019-04-30T17:47:40.269Z,19.00
2019-04-30T17:50:09.955Z,19.00
2019-04-30T17:52:39.361Z,18.90
2019-04-30T17:55:09.732Z,18.80
2019-04-30T17:57:40.258Z,18.80
2019-04-30T18:00:18.768Z,18.70
2019-04-30T18:02:43.039Z,18.70
2019-04-30T18:05:12.511Z,18.70
2019-04-30T18:07:41.875Z,18.60
2019-04-30T18:10:12.965Z,18.60
2019-04-30T18:12:42.245Z,18.60
2019-04-30T18:15:16.557Z,18.60
2019-04-30T18:17:50.445Z,18.50
2019-04-30T18:20:44.678Z,18.50
2019-04-30T18:23:35.850Z,18.50
2019-04-30T18:26:09.860Z,18.40
2019-04-30T18:28:39.242Z,18.40
2019-04-30T18:31:08.891Z,18.40
2019-04-30T18:33:38.341Z,18.40
2019-04-30T18:36:09.485Z,18.30
2019-04-30T18:38:39.253Z,18.30
2019-04-30T18:41:09.474Z,18.30
2019-04-30T18:43:40.518Z,18.30
2019-04-30T18:46:10.873Z,18.20
2019-04-30T18:48:40.406Z,18.20
2019-04-30T18:51:29.895Z,18.20
2019-04-30T18:53:40.752Z,18.20
2019-04-30T18:56:14.526Z,18.20
2019-04-30T18:58:43.190Z,18.20
2019-04-30T19:01:12.172Z,18.20
2019-04-30T19:03:41.564Z,18.20
2019-04-30T19:06:23.045Z,18.10
2019-04-30T19:08:53.653Z,18.00
2019-04-30T19:11:31.407Z,18.00
2019-04-30T19:14:24.666Z,17.90
2019-04-30T19:17:25.362Z,17.90
2019-04-30T19:20:22.638Z,17.80
2019-04-30T19:22:51.961Z,17.70
2019-04-30T19:25:21.337Z,17.60
2019-04-30T19:27:50.544Z,17.50
2019-04-30T19:30:20.553Z,17.40
2019-04-30T19:32:49.859Z,17.40
2019-04-30T19:35:19.103Z,17.30
2019-04-30T19:37:48.750Z,17.20
2019-04-30T19:40:19.019Z,17.10
2019-04-30T19:42:50.830Z,17.10
2019-04-30T19:45:19.438Z,17.00
2019-04-30T19:47:49.038Z,17.00
2019-04-30T19:50:19.241Z,17.00
2019-04-30T19:52:48.644Z,17.00
2019-04-30T19:55:20.431Z,17.00
2019-04-30T19:57:51.036Z,16.90
2019-04-30T20:00:20.047Z,16.90
2019-04-30T20:02:49.356Z,16.90
2019-04-30T20:05:19.412Z,16.90
2019-04-30T20:07:49.349Z,16.90
2019-04-30T20:10:19.585Z,16.90
2019-04-30T20:12:49.712Z,16.90
2019-04-30T20:15:23.413Z,16.90
2019-04-30T20:17:50.350Z,16.90
2019-04-30T20:20:19.693Z,16.90
2019-04-30T20:22:51.771Z,16.90
2019-04-30T20:25:19.984Z,16.90
2019-04-30T20:27:49.594Z,16.90
2019-04-30T20:30:19.579Z,16.90
2019-04-30T20:32:49.060Z,16.80
2019-04-30T20:35:19.886Z,16.80
2019-04-30T20:38:07.096Z,16.80
2019-04-30T20:40:43.634Z,16.70
2019-04-30T20:43:08.630Z,16.70
2019-04-30T20:45:38.129Z,16.70
2019-04-30T20:48:08.963Z,16.60
2019-04-30T20:50:38.429Z,16.60
2019-04-30T20:53:08.843Z,16.60
2019-04-30T20:55:40.576Z,16.50
2019-04-30T20:58:09.573Z,16.50
2019-04-30T21:00:38.983Z,16.40
2019-04-30T21:03:09.698Z,16.40
2019-04-30T21:05:39.190Z,16.40
2019-04-30T21:08:08.570Z,16.30
2019-04-30T21:10:39.549Z,16.30
2019-04-30T21:13:10.948Z,16.20
2019-04-30T21:15:39.897Z,16.20
2019-04-30T21:18:09.667Z,16.10
2019-04-30T21:20:38.947Z,16.10
2019-04-30T21:23:09.446Z,16.00
2019-04-30T21:25:38.847Z,16.00
2019-04-30T21:28:09.739Z,16.00
2019-04-30T21:30:39.188Z,15.90
2019-04-30T21:33:17.015Z,15.90
2019-04-30T21:35:50.781Z,15.90
2019-04-30T21:38:20.148Z,15.80
2019-04-30T21:40:49.456Z,15.80
2019-04-30T21:43:18.720Z,15.80
2019-04-30T21:45:49.398Z,15.70
2019-04-30T21:48:19.202Z,15.70
2019-04-30T21:50:49.740Z,15.70
2019-04-30T21:53:19.598Z,15.60
2019-04-30T21:55:49.726Z,15.60
2019-04-30T21:58:20.350Z,15.50
2019-04-30T22:01:11.079Z,15.50
2019-04-30T22:03:41.023Z,15.50
2019-04-30T22:06:10.690Z,15.40
2019-04-30T22:08:40.065Z,15.40
2019-04-30T22:11:09.816Z,15.30
2019-04-30T22:13:40.055Z,15.20
2019-04-30T22:16:10.526Z,15.20
2019-04-30T22:18:39.865Z,15.20
2019-04-30T22:21:09.368Z,15.20
2019-04-30T22:23:38.759Z,15.10
2019-04-30T22:26:08.123Z,15.10
2019-04-30T22:28:39.143Z,15.10
2019-04-30T22:31:08.665Z,15.10
2019-04-30T22:33:39.186Z,15.00
2019-04-30T22:36:32.137Z,15.00
2019-04-30T22:39:16.110Z,15.00
2019-04-30T22:41:45.449Z,14.90
2019-04-30T22:44:14.776Z,14.80
2019-04-30T22:46:44.178Z,14.80
2019-04-30T22:49:13.605Z,14.80
2019-04-30T22:51:43.021Z,14.70
2019-04-30T22:54:12.350Z,14.80
2019-04-30T22:56:41.778Z,14.70
2019-04-30T22:59:11.100Z,14.70
2019-04-30T23:02:02.236Z,14.70
2019-04-30T23:04:38.020Z,14.70
2019-04-30T23:07:07.580Z,14.70
2019-04-30T23:09:36.877Z,14.60
2019-04-30T23:12:06.552Z,14.60
2019-04-30T23:14:35.916Z,14.60
2019-04-30T23:17:05.465Z,14.60
2019-04-30T23:19:34.884Z,14.60
2019-04-30T23:22:04.528Z,14.50
2019-04-30T23:24:33.935Z,14.50
2019-04-30T23:27:03.373Z,14.40
2019-04-30T23:29:32.756Z,14.40
2019-04-30T23:32:02.181Z,14.30
2019-04-30T23:34:31.600Z,14.30
2019-04-30T23:37:00.987Z,14.20
2019-04-30T23:39:30.383Z,14.10
2019-04-30T23:41:59.761Z,14.00
2019-04-30T23:44:29.163Z,14.00
2019-04-30T23:46:58.552Z,13.90
2019-04-30T23:49:27.964Z,13.80
2019-04-30T23:51:57.307Z,13.70
2019-04-30T23:54:26.750Z,13.70
2019-04-30T23:56:56.035Z,13.60
2019-04-30T23:59:25.407Z,13.50
